Hovedside
METAR-TAF:

METAR-TAF

Lufthavner :

Örebro, Sverige

breddegrad: 59-14N, lengdegrad: 015-03E, høyde over havet: 57 m

Gjeldene værobservasjon

Denne rapporten ble laget for 35 minutter siden, klokken 10:20 UTC
Vind 11 kt fra Sørøst
Temperatur 19°C
Luftfuktighet 78%
Trykk 994 hPa
Sikt 10 km eller mer
ingen skyer under 1500 m og ingen bygeskyer

METAR: ESOE 211020Z 14011KT CAVOK 19/15 Q0994

Tid: 12:55 (10:55 UTC)

Varsel

Denne rapporten ble laget for 2 timer og 25 minutter siden, klokken 08:30 UTC
Varsel gyldig fra 21. klokken 09 UTC til 21. klokken 18 UTC
Vind 8 kt fra Sør
Sikt 10 km eller mer
ingen skyer under 1500 m og ingen bygeskyer
Blir
fra 21. klokken 11 UTC til 21. klokken 13 UTC
Vind 15 kt fra Sør med vindkast opp mot 25 kt
Midlertidig
fra 21. klokken 16 UTC til 21. klokken 18 UTC
Sikt: 4000 m
Brutte skyer i en høyde av 2500 ft, Bygeskyer.
regnbyger, torden

TAF: ESOE 210830Z 2109/2118 17008KT CAVOK BECMG 2111/2113 19015G25KT TEMPO 2116/2118 4000 SHRA TS BKN025CB

Værobservasjoner og værvarsel for over 4000 flyplasser (METAR- og TAF-rapporter).

Tilgjengelige stasjoner er representert av de røde og gule prikkene på kartet.

Hold musepekeren over prikken for å se navnet på stasjonen.

Klikk så for å se værobservasjoner og -varsler.

For å forandre kartet kan du klikke på den grønne knappen med svart kryss for å zoome inn, på den grønne knappen med strek for å zoome ut, eller på de grønne pilene for å se tilstøtende kart.


METAR-TAF: